Middletown, CT (06457)

11:57 PM EST on December 28, 2014 (GMT -0500)
Middletown Framing | Change Station
CLOSE
Current Station
Personal Weather Station
Location: Middletown, CT
Elevation: 56 ft
Nearby Weather Stations

Elev 56 ft 41.56 °N, 72.65 °W | Updated 1 minute ago

Partly Cloudy
Partly Cloudy
39.0 °F
Feels Like 35 °F
N
6.0
Wind Variable Wind from SW
Gusts 8.0 mph

Today
High -- | Low -- °F
--% Chance of Precip.
Yesterday
High -- | Low -- °F
Precip. -- in
7:16 AM 4:28 PM
First Quarter, 55% visible
Pressure 30.05 in
Visibility 10.0 miles
Clouds Clear
Windchill 35 °F
Dew Point 26 °F
Humidity 58%
Rainfall 0.09 in
Snow Depth Not available.
UV 0 out of 12
Pollen .10 out of 12
Air Quality Not available.
Flu Activity Not available.
METAR KMMK 290353Z AUTO 34006KT 10SM CLR 04/M03 A3004 RMK AO2 SLP174 T00391028 TSNO

More Conditions Fewer Conditions

Pressure 30.05 in
Visibility 10.0 miles
Clouds Clear
Windchill 35 °F
Dew Point 26 °F
Humidity 58%
Rainfall 0.09 in
Snow Depth Not available.
UV 0 out of 12
Pollen .10 out of 12
Air Quality Not available.
Flu Activity Not available.
METAR KMMK 290353Z AUTO 34006KT 10SM CLR 04/M03 A3004 RMK AO2 SLP174 T00391028 TSNO

More Conditions Fewer Conditions

10-Day Weather Forecast

Almanac

Astronomy

Dec. 28, 2014 Rise Set
Actual Time
Civil Twilight
Nautical Twilight
Astronomical Twilight
Moon
Length of Visible Light
Length of Day
Tomorrow will be .
, % of the Moon is Illuminated

Today's Extremes

State Highs State Lows

Community

WunderPhotos

Upload Photos

1,781,530 photos uploaded!

WunderBlogs® & News

Nearby

Air Quality

  Air Quality AQ Index Pollutant
Not available.

Snow Depth

Station Depth Elevation

Earthquake Activity

City Distance Mag. Time & Date
Minimum magnitude displayed is 2.5.

Coastal Water Temperatures

Place Temperature

Nearby Weather Stations